sensor_id;sensor_type;location;lat;lon;timestamp;P1;durP1;ratioP1;P2;durP2;ratioP2
25535;SDS011;13431;51.352;6.412;2023-02-18T00:00:31;11.93;;;10.93;;
25535;SDS011;13431;51.352;6.412;2023-02-18T00:02:58;12.23;;;11.13;;
25535;SDS011;13431;51.352;6.412;2023-02-18T00:05:27;12.43;;;11.35;;
25535;SDS011;13431;51.352;6.412;2023-02-18T00:07:54;11.63;;;10.63;;
25535;SDS011;13431;51.352;6.412;2023-02-18T00:10:22;10.98;;;9.98;;
25535;SDS011;13431;51.352;6.412;2023-02-18T00:12:49;11.40;;;10.40;;
25535;SDS011;13431;51.352;6.412;2023-02-18T00:15:17;12.25;;;11.10;;
25535;SDS011;13431;51.352;6.412;2023-02-18T00:17:44;13.20;;;11.90;;
25535;SDS011;13431;51.352;6.412;2023-02-18T00:20:11;12.25;;;11.15;;
25535;SDS011;13431;51.352;6.412;2023-02-18T00:22:39;13.15;;;11.95;;
25535;SDS011;13431;51.352;6.412;2023-02-18T00:25:06;12.88;;;11.63;;
25535;SDS011;13431;51.352;6.412;2023-02-18T00:27:33;13.13;;;11.82;;
25535;SDS011;13431;51.352;6.412;2023-02-18T00:30:02;12.38;;;11.25;;
25535;SDS011;13431;51.352;6.412;2023-02-18T00:32:33;14.05;;;11.73;;
25535;SDS011;13431;51.352;6.412;2023-02-18T00:35:01;12.05;;;10.95;;
25535;SDS011;13431;51.352;6.412;2023-02-18T00:37:29;13.80;;;12.43;;
25535;SDS011;13431;51.352;6.412;2023-02-18T00:39:57;13.50;;;12.18;;
25535;SDS011;13431;51.352;6.412;2023-02-18T00:42:24;12.05;;;10.95;;
25535;SDS011;13431;51.352;6.412;2023-02-18T00:44:52;13.15;;;11.50;;
25535;SDS011;13431;51.352;6.412;2023-02-18T00:47:20;13.00;;;11.90;;
25535;SDS011;13431;51.352;6.412;2023-02-18T00:49:47;13.27;;;12.07;;
25535;SDS011;13431;51.352;6.412;2023-02-18T00:52:15;13.15;;;11.90;;
25535;SDS011;13431;51.352;6.412;2023-02-18T00:54:42;11.50;;;10.40;;
25535;SDS011;13431;51.352;6.412;2023-02-18T00:57:09;13.45;;;12.35;;
25535;SDS011;13431;51.352;6.412;2023-02-18T00:59:37;12.88;;;11.68;;
25535;SDS011;13431;51.352;6.412;2023-02-18T01:02:04;13.02;;;11.90;;
25535;SDS011;13431;51.352;6.412;2023-02-18T01:04:33;11.95;;;10.85;;
25535;SDS011;13431;51.352;6.412;2023-02-18T01:07:00;12.15;;;11.05;;
25535;SDS011;13431;51.352;6.412;2023-02-18T01:09:27;11.93;;;10.80;;
25535;SDS011;13431;51.352;6.412;2023-02-18T01:11:55;12.63;;;11.43;;
25535;SDS011;13431;51.352;6.412;2023-02-18T01:14:22;11.52;;;10.27;;
25535;SDS011;13431;51.352;6.412;2023-02-18T01:16:49;10.95;;;9.93;;
25535;SDS011;13431;51.352;6.412;2023-02-18T01:19:17;11.75;;;10.63;;
25535;SDS011;13431;51.352;6.412;2023-02-18T01:21:44;11.32;;;10.32;;
25535;SDS011;13431;51.352;6.412;2023-02-18T01:24:13;10.70;;;9.60;;
25535;SDS011;13431;51.352;6.412;2023-02-18T01:26:41;10.65;;;9.75;;
25535;SDS011;13431;51.352;6.412;2023-02-18T01:29:08;10.65;;;9.55;;
25535;SDS011;13431;51.352;6.412;2023-02-18T01:31:36;9.68;;;8.82;;
25535;SDS011;13431;51.352;6.412;2023-02-18T01:34:03;10.27;;;9.40;;
25535;SDS011;13431;51.352;6.412;2023-02-18T01:36:30;10.77;;;9.77;;
25535;SDS011;13431;51.352;6.412;2023-02-18T01:38:58;10.30;;;9.30;;
25535;SDS011;13431;51.352;6.412;2023-02-18T01:41:26;9.63;;;8.73;;
25535;SDS011;13431;51.352;6.412;2023-02-18T01:46:59;10.25;;;9.30;;
25535;SDS011;13431;51.352;6.412;2023-02-18T01:49:30;10.57;;;9.48;;
25535;SDS011;13431;51.352;6.412;2023-02-18T01:52:05;10.98;;;9.98;;
25535;SDS011;13431;51.352;6.412;2023-02-18T01:54:42;9.75;;;8.82;;
25535;SDS011;13431;51.352;6.412;2023-02-18T02:02:20;11.13;;;10.10;;
25535;SDS011;13431;51.352;6.412;2023-02-18T02:04:48;10.05;;;9.00;;
25535;SDS011;13431;51.352;6.412;2023-02-18T02:07:17;10.45;;;9.52;;
25535;SDS011;13431;51.352;6.412;2023-02-18T02:09:46;9.93;;;8.85;;
25535;SDS011;13431;51.352;6.412;2023-02-18T02:12:22;9.35;;;8.45;;
25535;SDS011;13431;51.352;6.412;2023-02-18T02:15:06;9.65;;;8.65;;
25535;SDS011;13431;51.352;6.412;2023-02-18T02:26:24;9.43;;;8.50;;
25535;SDS011;13431;51.352;6.412;2023-02-18T02:32:15;10.27;;;9.35;;
25535;SDS011;13431;51.352;6.412;2023-02-18T02:40:22;10.50;;;9.60;;
25535;SDS011;13431;51.352;6.412;2023-02-18T02:43:17;8.80;;;8.00;;
25535;SDS011;13431;51.352;6.412;2023-02-18T02:46:05;9.50;;;8.60;;
25535;SDS011;13431;51.352;6.412;2023-02-18T02:51:43;9.93;;;8.93;;
25535;SDS011;13431;51.352;6.412;2023-02-18T02:54:18;10.75;;;9.50;;
25535;SDS011;13431;51.352;6.412;2023-02-18T02:56:48;10.35;;;9.35;;
25535;SDS011;13431;51.352;6.412;2023-02-18T02:59:23;10.73;;;9.68;;
25535;SDS011;13431;51.352;6.412;2023-02-18T03:02:07;10.57;;;9.57;;
25535;SDS011;13431;51.352;6.412;2023-02-18T03:10:45;12.43;;;11.13;;
25535;SDS011;13431;51.352;6.412;2023-02-18T03:13:36;12.45;;;11.32;;
25535;SDS011;13431;51.352;6.412;2023-02-18T03:24:13;12.40;;;11.20;;
25535;SDS011;13431;51.352;6.412;2023-02-18T03:26:47;11.30;;;10.23;;
25535;SDS011;13431;51.352;6.412;2023-02-18T03:29:21;11.60;;;10.40;;
25535;SDS011;13431;51.352;6.412;2023-02-18T03:31:51;12.10;;;10.73;;
25535;SDS011;13431;51.352;6.412;2023-02-18T03:34:25;11.25;;;10.20;;
25535;SDS011;13431;51.352;6.412;2023-02-18T03:36:57;11.00;;;9.90;;
25535;SDS011;13431;51.352;6.412;2023-02-18T03:39:27;9.85;;;8.90;;
25535;SDS011;13431;51.352;6.412;2023-02-18T03:41:56;10.65;;;9.50;;
25535;SDS011;13431;51.352;6.412;2023-02-18T03:44:24;9.30;;;8.45;;
25535;SDS011;13431;51.352;6.412;2023-02-18T03:46:52;9.45;;;8.55;;
25535;SDS011;13431;51.352;6.412;2023-02-18T03:49:20;7.95;;;7.15;;
25535;SDS011;13431;51.352;6.412;2023-02-18T03:51:48;8.10;;;7.30;;
25535;SDS011;13431;51.352;6.412;2023-02-18T03:54:15;7.78;;;6.97;;
25535;SDS011;13431;51.352;6.412;2023-02-18T03:56:43;8.10;;;7.00;;
25535;SDS011;13431;51.352;6.412;2023-02-18T03:59:10;7.28;;;6.57;;
25535;SDS011;13431;51.352;6.412;2023-02-18T04:01:38;6.45;;;5.85;;
25535;SDS011;13431;51.352;6.412;2023-02-18T04:04:06;6.35;;;5.75;;
25535;SDS011;13431;51.352;6.412;2023-02-18T04:06:34;5.75;;;5.15;;
25535;SDS011;13431;51.352;6.412;2023-02-18T04:09:02;7.75;;;5.97;;
25535;SDS011;13431;51.352;6.412;2023-02-18T04:11:35;5.20;;;4.70;;
25535;SDS011;13431;51.352;6.412;2023-02-18T04:14:06;4.28;;;3.88;;
25535;SDS011;13431;51.352;6.412;2023-02-18T04:16:34;4.30;;;3.75;;
25535;SDS011;13431;51.352;6.412;2023-02-18T04:19:01;5.68;;;3.97;;
25535;SDS011;13431;51.352;6.412;2023-02-18T04:21:29;3.95;;;3.55;;
25535;SDS011;13431;51.352;6.412;2023-02-18T04:23:56;4.30;;;3.42;;
25535;SDS011;13431;51.352;6.412;2023-02-18T04:26:23;3.58;;;3.17;;
25535;SDS011;13431;51.352;6.412;2023-02-18T04:28:51;4.60;;;3.35;;
25535;SDS011;13431;51.352;6.412;2023-02-18T04:31:18;4.13;;;3.58;;
25535;SDS011;13431;51.352;6.412;2023-02-18T04:33:45;3.40;;;3.10;;
25535;SDS011;13431;51.352;6.412;2023-02-18T04:36:13;3.35;;;3.05;;
25535;SDS011;13431;51.352;6.412;2023-02-18T04:38:40;3.50;;;2.90;;
25535;SDS011;13431;51.352;6.412;2023-02-18T04:41:08;3.80;;;3.08;;
25535;SDS011;13431;51.352;6.412;2023-02-18T04:43:38;3.55;;;2.70;;
25535;SDS011;13431;51.352;6.412;2023-02-18T04:46:05;2.88;;;2.67;;
25535;SDS011;13431;51.352;6.412;2023-02-18T04:48:33;2.42;;;2.20;;
25535;SDS011;13431;51.352;6.412;2023-02-18T04:51:01;2.42;;;2.03;;
25535;SDS011;13431;51.352;6.412;2023-02-18T04:53:29;1.98;;;1.83;;
25535;SDS011;13431;51.352;6.412;2023-02-18T04:55:56;2.22;;;2.00;;
25535;SDS011;13431;51.352;6.412;2023-02-18T04:58:23;2.45;;;2.25;;
25535;SDS011;13431;51.352;6.412;2023-02-18T05:00:51;3.78;;;1.70;;
25535;SDS011;13431;51.352;6.412;2023-02-18T05:03:19;2.60;;;2.40;;
25535;SDS011;13431;51.352;6.412;2023-02-18T05:05:47;1.90;;;1.80;;
25535;SDS011;13431;51.352;6.412;2023-02-18T05:08:15;2.33;;;2.13;;
25535;SDS011;13431;51.352;6.412;2023-02-18T05:10:42;1.70;;;1.60;;
25535;SDS011;13431;51.352;6.412;2023-02-18T05:13:09;2.33;;;2.03;;
25535;SDS011;13431;51.352;6.412;2023-02-18T05:15:37;2.40;;;2.20;;
25535;SDS011;13431;51.352;6.412;2023-02-18T05:18:04;2.42;;;2.22;;
25535;SDS011;13431;51.352;6.412;2023-02-18T05:20:32;3.05;;;2.58;;
25535;SDS011;13431;51.352;6.412;2023-02-18T05:22:59;2.58;;;2.10;;
25535;SDS011;13431;51.352;6.412;2023-02-18T05:25:27;2.40;;;2.20;;
25535;SDS011;13431;51.352;6.412;2023-02-18T05:27:54;2.45;;;2.17;;
25535;SDS011;13431;51.352;6.412;2023-02-18T05:30:21;2.28;;;2.08;;
25535;SDS011;13431;51.352;6.412;2023-02-18T05:32:49;2.60;;;2.28;;
25535;SDS011;13431;51.352;6.412;2023-02-18T05:35:16;2.38;;;2.17;;
25535;SDS011;13431;51.352;6.412;2023-02-18T05:37:43;2.13;;;1.92;;
25535;SDS011;13431;51.352;6.412;2023-02-18T05:40:10;2.10;;;2.00;;
25535;SDS011;13431;51.352;6.412;2023-02-18T05:42:38;2.45;;;2.25;;
25535;SDS011;13431;51.352;6.412;2023-02-18T05:45:06;3.00;;;2.30;;
25535;SDS011;13431;51.352;6.412;2023-02-18T05:47:33;3.10;;;2.22;;
25535;SDS011;13431;51.352;6.412;2023-02-18T05:50:01;2.28;;;2.08;;
25535;SDS011;13431;51.352;6.412;2023-02-18T05:52:29;3.17;;;2.42;;
25535;SDS011;13431;51.352;6.412;2023-02-18T05:54:56;2.30;;;2.10;;
25535;SDS011;13431;51.352;6.412;2023-02-18T05:57:24;2.10;;;2.00;;
25535;SDS011;13431;51.352;6.412;2023-02-18T05:59:51;2.70;;;2.50;;
25535;SDS011;13431;51.352;6.412;2023-02-18T06:02:18;2.45;;;1.98;;
25535;SDS011;13431;51.352;6.412;2023-02-18T06:04:46;2.70;;;2.50;;
25535;SDS011;13431;51.352;6.412;2023-02-18T06:07:14;2.90;;;2.53;;
25535;SDS011;13431;51.352;6.412;2023-02-18T06:09:41;2.60;;;2.40;;
25535;SDS011;13431;51.352;6.412;2023-02-18T06:12:08;3.97;;;2.90;;
25535;SDS011;13431;51.352;6.412;2023-02-18T06:14:35;3.35;;;3.03;;
25535;SDS011;13431;51.352;6.412;2023-02-18T06:17:03;3.75;;;3.33;;
25535;SDS011;13431;51.352;6.412;2023-02-18T06:19:31;4.30;;;3.30;;
25535;SDS011;13431;51.352;6.412;2023-02-18T06:21:58;4.18;;;3.28;;
25535;SDS011;13431;51.352;6.412;2023-02-18T06:24:25;4.82;;;3.50;;
25535;SDS011;13431;51.352;6.412;2023-02-18T06:26:52;4.30;;;3.50;;
25535;SDS011;13431;51.352;6.412;2023-02-18T06:29:20;4.22;;;3.83;;
25535;SDS011;13431;51.352;6.412;2023-02-18T06:31:47;4.55;;;3.55;;
25535;SDS011;13431;51.352;6.412;2023-02-18T06:34:15;3.83;;;3.42;;
25535;SDS011;13431;51.352;6.412;2023-02-18T06:36:43;3.38;;;3.08;;
25535;SDS011;13431;51.352;6.412;2023-02-18T06:39:10;3.85;;;2.85;;
25535;SDS011;13431;51.352;6.412;2023-02-18T06:41:37;4.32;;;3.30;;
25535;SDS011;13431;51.352;6.412;2023-02-18T06:44:06;3.90;;;3.50;;
25535;SDS011;13431;51.352;6.412;2023-02-18T06:46:33;6.05;;;3.20;;
25535;SDS011;13431;51.352;6.412;2023-02-18T06:49:01;3.65;;;3.17;;
25535;SDS011;13431;51.352;6.412;2023-02-18T06:51:28;3.70;;;3.00;;
25535;SDS011;13431;51.352;6.412;2023-02-18T06:53:55;3.22;;;2.92;;
25535;SDS011;13431;51.352;6.412;2023-02-18T06:56:22;3.05;;;2.75;;
25535;SDS011;13431;51.352;6.412;2023-02-18T06:58:50;3.22;;;2.92;;
25535;SDS011;13431;51.352;6.412;2023-02-18T07:01:17;2.70;;;2.33;;
25535;SDS011;13431;51.352;6.412;2023-02-18T07:03:44;3.15;;;2.38;;
25535;SDS011;13431;51.352;6.412;2023-02-18T07:06:15;2.58;;;2.33;;
25535;SDS011;13431;51.352;6.412;2023-02-18T07:08:43;2.20;;;2.00;;
25535;SDS011;13431;51.352;6.412;2023-02-18T07:11:10;3.97;;;2.00;;
25535;SDS011;13431;51.352;6.412;2023-02-18T07:13:37;2.22;;;2.03;;
25535;SDS011;13431;51.352;6.412;2023-02-18T07:16:04;2.28;;;2.08;;
25535;SDS011;13431;51.352;6.412;2023-02-18T07:18:33;2.13;;;1.95;;
25535;SDS011;13431;51.352;6.412;2023-02-18T07:21:00;2.45;;;2.10;;
25535;SDS011;13431;51.352;6.412;2023-02-18T07:23:27;1.85;;;1.75;;
25535;SDS011;13431;51.352;6.412;2023-02-18T07:26:11;1.73;;;1.63;;
25535;SDS011;13431;51.352;6.412;2023-02-18T07:28:39;1.80;;;1.70;;
25535;SDS011;13431;51.352;6.412;2023-02-18T07:31:07;2.47;;;1.73;;
25535;SDS011;13431;51.352;6.412;2023-02-18T07:33:35;2.08;;;1.50;;
25535;SDS011;13431;51.352;6.412;2023-02-18T07:36:02;1.67;;;1.58;;
25535;SDS011;13431;51.352;6.412;2023-02-18T07:38:30;2.25;;;1.38;;
25535;SDS011;13431;51.352;6.412;2023-02-18T07:40:57;1.60;;;1.50;;
25535;SDS011;13431;51.352;6.412;2023-02-18T07:43:25;1.92;;;1.83;;
25535;SDS011;13431;51.352;6.412;2023-02-18T07:45:53;1.60;;;1.50;;
25535;SDS011;13431;51.352;6.412;2023-02-18T07:48:21;2.33;;;2.13;;
25535;SDS011;13431;51.352;6.412;2023-02-18T07:50:48;1.83;;;1.67;;
25535;SDS011;13431;51.352;6.412;2023-02-18T07:53:16;3.63;;;1.70;;
25535;SDS011;13431;51.352;6.412;2023-02-18T07:55:43;2.35;;;1.98;;
25535;SDS011;13431;51.352;6.412;2023-02-18T07:58:20;3.75;;;2.38;;
25535;SDS011;13431;51.352;6.412;2023-02-18T08:00:50;3.47;;;2.35;;
25535;SDS011;13431;51.352;6.412;2023-02-18T08:03:22;2.97;;;2.75;;
25535;SDS011;13431;51.352;6.412;2023-02-18T08:05:51;3.08;;;2.88;;
25535;SDS011;13431;51.352;6.412;2023-02-18T08:08:20;3.42;;;2.20;;
25535;SDS011;13431;51.352;6.412;2023-02-18T08:10:49;4.32;;;2.85;;
25535;SDS011;13431;51.352;6.412;2023-02-18T08:13:18;4.25;;;3.30;;
25535;SDS011;13431;51.352;6.412;2023-02-18T08:15:46;4.63;;;3.35;;
25535;SDS011;13431;51.352;6.412;2023-02-18T08:18:18;4.57;;;3.42;;
25535;SDS011;13431;51.352;6.412;2023-02-18T08:20:48;4.63;;;3.45;;
25535;SDS011;13431;51.352;6.412;2023-02-18T08:23:18;6.93;;;3.97;;
25535;SDS011;13431;51.352;6.412;2023-02-18T08:25:50;7.97;;;3.92;;
25535;SDS011;13431;51.352;6.412;2023-02-18T08:28:20;5.75;;;3.20;;
25535;SDS011;13431;51.352;6.412;2023-02-18T08:30:50;6.65;;;3.60;;
25535;SDS011;13431;51.352;6.412;2023-02-18T08:33:19;6.35;;;5.25;;
25535;SDS011;13431;51.352;6.412;2023-02-18T08:35:48;7.10;;;4.53;;
25535;SDS011;13431;51.352;6.412;2023-02-18T08:38:16;8.07;;;4.28;;
25535;SDS011;13431;51.352;6.412;2023-02-18T08:40:44;10.10;;;4.30;;
25535;SDS011;13431;51.352;6.412;2023-02-18T08:43:12;6.35;;;3.60;;
25535;SDS011;13431;51.352;6.412;2023-02-18T08:45:40;8.90;;;3.10;;
25535;SDS011;13431;51.352;6.412;2023-02-18T08:48:09;8.30;;;4.22;;
25535;SDS011;13431;51.352;6.412;2023-02-18T08:50:46;10.75;;;4.68;;
25535;SDS011;13431;51.352;6.412;2023-02-18T08:53:14;9.25;;;3.92;;
25535;SDS011;13431;51.352;6.412;2023-02-18T08:55:42;6.10;;;3.28;;
25535;SDS011;13431;51.352;6.412;2023-02-18T08:58:10;8.82;;;3.05;;
25535;SDS011;13431;51.352;6.412;2023-02-18T09:00:38;8.38;;;4.07;;
25535;SDS011;13431;51.352;6.412;2023-02-18T09:03:08;12.60;;;3.60;;
25535;SDS011;13431;51.352;6.412;2023-02-18T09:05:40;12.40;;;3.30;;
25535;SDS011;13431;51.352;6.412;2023-02-18T09:08:07;13.35;;;3.22;;
25535;SDS011;13431;51.352;6.412;2023-02-18T09:10:35;9.38;;;2.90;;
25535;SDS011;13431;51.352;6.412;2023-02-18T09:13:03;11.02;;;3.30;;
25535;SDS011;13431;51.352;6.412;2023-02-18T09:15:30;6.93;;;2.47;;
25535;SDS011;13431;51.352;6.412;2023-02-18T09:17:58;10.00;;;3.38;;
25535;SDS011;13431;51.352;6.412;2023-02-18T09:20:25;8.68;;;3.35;;
25535;SDS011;13431;51.352;6.412;2023-02-18T09:22:53;11.02;;;3.45;;
25535;SDS011;13431;51.352;6.412;2023-02-18T09:25:20;8.18;;;3.03;;
25535;SDS011;13431;51.352;6.412;2023-02-18T09:27:48;10.75;;;2.88;;
25535;SDS011;13431;51.352;6.412;2023-02-18T09:30:15;10.50;;;2.85;;
25535;SDS011;13431;51.352;6.412;2023-02-18T09:32:43;8.90;;;3.15;;
25535;SDS011;13431;51.352;6.412;2023-02-18T09:35:10;11.05;;;3.28;;
25535;SDS011;13431;51.352;6.412;2023-02-18T09:37:38;9.32;;;2.20;;
25535;SDS011;13431;51.352;6.412;2023-02-18T09:40:06;11.50;;;3.17;;
25535;SDS011;13431;51.352;6.412;2023-02-18T09:42:34;11.10;;;2.90;;
25535;SDS011;13431;51.352;6.412;2023-02-18T09:45:03;10.30;;;3.03;;
25535;SDS011;13431;51.352;6.412;2023-02-18T09:47:37;9.80;;;3.60;;
25535;SDS011;13431;51.352;6.412;2023-02-18T09:50:10;6.93;;;2.50;;
25535;SDS011;13431;51.352;6.412;2023-02-18T09:52:44;10.68;;;2.65;;
25535;SDS011;13431;51.352;6.412;2023-02-18T09:55:23;5.75;;;2.10;;
25535;SDS011;13431;51.352;6.412;2023-02-18T09:58:22;7.30;;;3.00;;
25535;SDS011;13431;51.352;6.412;2023-02-18T10:00:57;7.68;;;2.95;;
25535;SDS011;13431;51.352;6.412;2023-02-18T10:03:44;9.82;;;2.47;;
25535;SDS011;13431;51.352;6.412;2023-02-18T10:06:17;7.28;;;3.45;;
25535;SDS011;13431;51.352;6.412;2023-02-18T10:08:50;8.73;;;2.80;;
25535;SDS011;13431;51.352;6.412;2023-02-18T10:11:30;6.72;;;2.60;;
25535;SDS011;13431;51.352;6.412;2023-02-18T10:14:01;6.78;;;2.53;;
25535;SDS011;13431;51.352;6.412;2023-02-18T10:16:29;8.32;;;2.35;;
25535;SDS011;13431;51.352;6.412;2023-02-18T10:18:58;7.07;;;2.72;;
25535;SDS011;13431;51.352;6.412;2023-02-18T10:21:32;9.73;;;2.60;;
25535;SDS011;13431;51.352;6.412;2023-02-18T10:26:43;9.27;;;2.95;;
25535;SDS011;13431;51.352;6.412;2023-02-18T10:29:15;7.10;;;2.58;;
25535;SDS011;13431;51.352;6.412;2023-02-18T10:31:50;5.45;;;2.65;;
25535;SDS011;13431;51.352;6.412;2023-02-18T10:45:45;6.82;;;2.65;;
25535;SDS011;13431;51.352;6.412;2023-02-18T10:48:35;7.03;;;2.10;;
25535;SDS011;13431;51.352;6.412;2023-02-18T10:51:29;8.32;;;2.95;;
25535;SDS011;13431;51.352;6.412;2023-02-18T10:54:00;7.07;;;2.40;;
25535;SDS011;13431;51.352;6.412;2023-02-18T10:59:04;10.82;;;3.13;;
25535;SDS011;13431;51.352;6.412;2023-02-18T11:01:38;6.97;;;2.70;;
25535;SDS011;13431;51.352;6.412;2023-02-18T11:04:11;9.98;;;3.28;;
25535;SDS011;13431;51.352;6.412;2023-02-18T11:06:44;9.02;;;3.08;;
25535;SDS011;13431;51.352;6.412;2023-02-18T11:09:25;6.28;;;2.63;;
25535;SDS011;13431;51.352;6.412;2023-02-18T11:12:06;7.68;;;2.88;;
25535;SDS011;13431;51.352;6.412;2023-02-18T11:14:45;7.22;;;2.78;;
25535;SDS011;13431;51.352;6.412;2023-02-18T11:19:51;6.47;;;2.67;;
25535;SDS011;13431;51.352;6.412;2023-02-18T11:22:24;8.55;;;2.95;;
25535;SDS011;13431;51.352;6.412;2023-02-18T11:24:59;7.55;;;3.10;;
25535;SDS011;13431;51.352;6.412;2023-02-18T11:27:32;10.00;;;3.60;;
25535;SDS011;13431;51.352;6.412;2023-02-18T11:32:42;7.22;;;2.95;;
25535;SDS011;13431;51.352;6.412;2023-02-18T11:35:16;9.75;;;3.60;;
25535;SDS011;13431;51.352;6.412;2023-02-18T11:37:46;8.25;;;2.88;;
25535;SDS011;13431;51.352;6.412;2023-02-18T11:40:25;5.35;;;2.88;;
25535;SDS011;13431;51.352;6.412;2023-02-18T11:46:10;5.53;;;3.63;;
25535;SDS011;13431;51.352;6.412;2023-02-18T11:48:40;7.15;;;2.70;;
25535;SDS011;13431;51.352;6.412;2023-02-18T11:51:18;7.65;;;2.83;;
25535;SDS011;13431;51.352;6.412;2023-02-18T11:54:03;8.15;;;3.78;;
25535;SDS011;13431;51.352;6.412;2023-02-18T11:56:53;5.22;;;3.13;;
25535;SDS011;13431;51.352;6.412;2023-02-18T11:59:33;5.25;;;3.17;;
25535;SDS011;13431;51.352;6.412;2023-02-18T12:02:23;7.10;;;3.28;;
25535;SDS011;13431;51.352;6.412;2023-02-18T12:05:23;5.80;;;3.05;;
25535;SDS011;13431;51.352;6.412;2023-02-18T12:10:46;5.13;;;3.30;;
25535;SDS011;13431;51.352;6.412;2023-02-18T12:13:24;5.35;;;2.67;;
25535;SDS011;13431;51.352;6.412;2023-02-18T12:32:35;9.02;;;3.90;;
25535;SDS011;13431;51.352;6.412;2023-02-18T12:41:09;8.98;;;3.97;;
25535;SDS011;13431;51.352;6.412;2023-02-18T12:43:55;5.40;;;3.75;;
25535;SDS011;13431;51.352;6.412;2023-02-18T12:52:33;8.27;;;4.82;;
25535;SDS011;13431;51.352;6.412;2023-02-18T12:57:58;7.68;;;4.57;;
25535;SDS011;13431;51.352;6.412;2023-02-18T13:00:37;10.75;;;5.35;;
25535;SDS011;13431;51.352;6.412;2023-02-18T13:06:01;8.18;;;5.40;;
25535;SDS011;13431;51.352;6.412;2023-02-18T13:11:39;10.85;;;5.85;;
25535;SDS011;13431;51.352;6.412;2023-02-18T13:14:21;7.65;;;5.25;;
25535;SDS011;13431;51.352;6.412;2023-02-18T13:16:53;8.00;;;5.25;;
25535;SDS011;13431;51.352;6.412;2023-02-18T13:19:29;10.52;;;5.53;;
25535;SDS011;13431;51.352;6.412;2023-02-18T13:22:11;9.90;;;6.50;;
25535;SDS011;13431;51.352;6.412;2023-02-18T13:24:44;11.30;;;6.63;;
25535;SDS011;13431;51.352;6.412;2023-02-18T13:27:15;12.48;;;7.25;;
25535;SDS011;13431;51.352;6.412;2023-02-18T13:33:11;9.07;;;6.70;;
25535;SDS011;13431;51.352;6.412;2023-02-18T13:39:05;11.73;;;6.88;;
25535;SDS011;13431;51.352;6.412;2023-02-18T13:41:41;14.90;;;7.70;;
25535;SDS011;13431;51.352;6.412;2023-02-18T13:44:36;12.63;;;7.50;;
25535;SDS011;13431;51.352;6.412;2023-02-18T13:46:56;11.65;;;7.38;;
25535;SDS011;13431;51.352;6.412;2023-02-18T13:49:25;15.82;;;8.13;;
25535;SDS011;13431;51.352;6.412;2023-02-18T13:52:00;14.00;;;7.55;;
25535;SDS011;13431;51.352;6.412;2023-02-18T13:54:33;13.95;;;7.90;;
25535;SDS011;13431;51.352;6.412;2023-02-18T13:57:14;13.90;;;7.85;;
25535;SDS011;13431;51.352;6.412;2023-02-18T13:59:49;17.77;;;7.97;;
25535;SDS011;13431;51.352;6.412;2023-02-18T14:07:27;15.68;;;8.88;;
25535;SDS011;13431;51.352;6.412;2023-02-18T14:10:03;12.98;;;8.00;;
25535;SDS011;13431;51.352;6.412;2023-02-18T14:12:34;14.85;;;9.10;;
25535;SDS011;13431;51.352;6.412;2023-02-18T14:17:47;21.98;;;10.52;;
25535;SDS011;13431;51.352;6.412;2023-02-18T14:23:37;13.98;;;8.20;;
25535;SDS011;13431;51.352;6.412;2023-02-18T14:28:40;10.40;;;8.35;;
25535;SDS011;13431;51.352;6.412;2023-02-18T14:33:39;12.20;;;7.50;;
25535;SDS011;13431;51.352;6.412;2023-02-18T14:36:21;18.50;;;10.20;;
25535;SDS011;13431;51.352;6.412;2023-02-18T14:38:59;10.07;;;7.57;;
25535;SDS011;13431;51.352;6.412;2023-02-18T14:41:45;11.82;;;7.85;;
25535;SDS011;13431;51.352;6.412;2023-02-18T14:50:16;8.48;;;7.60;;
25535;SDS011;13431;51.352;6.412;2023-02-18T14:52:47;11.40;;;7.70;;
25535;SDS011;13431;51.352;6.412;2023-02-18T14:55:22;10.55;;;8.13;;
25535;SDS011;13431;51.352;6.412;2023-02-18T15:00:35;10.90;;;8.55;;
25535;SDS011;13431;51.352;6.412;2023-02-18T15:03:14;16.13;;;9.50;;
25535;SDS011;13431;51.352;6.412;2023-02-18T15:05:44;11.00;;;7.72;;
25535;SDS011;13431;51.352;6.412;2023-02-18T15:08:15;12.95;;;8.75;;
25535;SDS011;13431;51.352;6.412;2023-02-18T15:10:44;10.77;;;8.32;;
25535;SDS011;13431;51.352;6.412;2023-02-18T15:15:59;13.85;;;9.05;;
25535;SDS011;13431;51.352;6.412;2023-02-18T15:18:37;12.93;;;7.90;;
25535;SDS011;13431;51.352;6.412;2023-02-18T15:21:05;13.25;;;8.18;;
25535;SDS011;13431;51.352;6.412;2023-02-18T15:23:35;8.80;;;7.90;;
25535;SDS011;13431;51.352;6.412;2023-02-18T15:26:06;12.30;;;8.25;;
25535;SDS011;13431;51.352;6.412;2023-02-18T15:28:40;12.35;;;7.75;;
25535;SDS011;13431;51.352;6.412;2023-02-18T15:31:17;12.23;;;10.43;;
25535;SDS011;13431;51.352;6.412;2023-02-18T15:33:50;10.05;;;8.35;;
25535;SDS011;13431;51.352;6.412;2023-02-18T15:36:18;9.90;;;8.25;;
25535;SDS011;13431;51.352;6.412;2023-02-18T15:38:46;14.45;;;7.55;;
25535;SDS011;13431;51.352;6.412;2023-02-18T15:41:14;11.27;;;8.43;;
25535;SDS011;13431;51.352;6.412;2023-02-18T15:44:02;14.07;;;9.73;;
25535;SDS011;13431;51.352;6.412;2023-02-18T15:46:32;13.48;;;9.30;;
25535;SDS011;13431;51.352;6.412;2023-02-18T15:48:59;10.45;;;8.05;;
25535;SDS011;13431;51.352;6.412;2023-02-18T15:51:27;11.15;;;9.60;;
25535;SDS011;13431;51.352;6.412;2023-02-18T15:53:58;10.95;;;8.63;;
25535;SDS011;13431;51.352;6.412;2023-02-18T16:01:54;10.77;;;7.43;;
25535;SDS011;13431;51.352;6.412;2023-02-18T16:04:27;12.73;;;7.85;;
25535;SDS011;13431;51.352;6.412;2023-02-18T16:06:58;14.00;;;8.25;;
25535;SDS011;13431;51.352;6.412;2023-02-18T16:09:33;12.73;;;8.02;;
25535;SDS011;13431;51.352;6.412;2023-02-18T16:12:02;10.05;;;6.90;;
25535;SDS011;13431;51.352;6.412;2023-02-18T16:14:46;10.32;;;7.80;;
25535;SDS011;13431;51.352;6.412;2023-02-18T16:17:16;9.55;;;7.95;;
25535;SDS011;13431;51.352;6.412;2023-02-18T16:19:48;13.32;;;7.65;;
25535;SDS011;13431;51.352;6.412;2023-02-18T16:25:09;13.00;;;7.38;;
25535;SDS011;13431;51.352;6.412;2023-02-18T16:30:29;10.30;;;7.28;;
25535;SDS011;13431;51.352;6.412;2023-02-18T16:32:59;9.30;;;7.45;;
25535;SDS011;13431;51.352;6.412;2023-02-18T16:35:28;8.15;;;6.78;;
25535;SDS011;13431;51.352;6.412;2023-02-18T16:38:15;9.40;;;6.93;;
25535;SDS011;13431;51.352;6.412;2023-02-18T16:40:44;12.10;;;7.13;;
25535;SDS011;13431;51.352;6.412;2023-02-18T16:43:16;9.70;;;6.70;;
25535;SDS011;13431;51.352;6.412;2023-02-18T16:45:46;12.15;;;7.38;;
25535;SDS011;13431;51.352;6.412;2023-02-18T16:48:25;16.23;;;8.57;;
25535;SDS011;13431;51.352;6.412;2023-02-18T16:51:01;12.93;;;7.93;;
25535;SDS011;13431;51.352;6.412;2023-02-18T16:55:58;8.60;;;7.40;;
25535;SDS011;13431;51.352;6.412;2023-02-18T16:58:27;13.55;;;8.20;;
25535;SDS011;13431;51.352;6.412;2023-02-18T17:00:55;11.40;;;7.60;;
25535;SDS011;13431;51.352;6.412;2023-02-18T17:03:22;10.75;;;7.90;;
25535;SDS011;13431;51.352;6.412;2023-02-18T17:05:50;12.63;;;7.78;;
25535;SDS011;13431;51.352;6.412;2023-02-18T17:08:21;12.68;;;7.70;;
25535;SDS011;13431;51.352;6.412;2023-02-18T17:10:54;12.93;;;8.02;;
25535;SDS011;13431;51.352;6.412;2023-02-18T17:13:25;9.20;;;6.88;;
25535;SDS011;13431;51.352;6.412;2023-02-18T17:15:55;10.40;;;7.00;;
25535;SDS011;13431;51.352;6.412;2023-02-18T17:18:24;9.63;;;6.95;;
25535;SDS011;13431;51.352;6.412;2023-02-18T17:20:52;11.90;;;7.00;;
25535;SDS011;13431;51.352;6.412;2023-02-18T17:23:21;9.65;;;7.43;;
25535;SDS011;13431;51.352;6.412;2023-02-18T17:25:50;8.82;;;6.40;;
25535;SDS011;13431;51.352;6.412;2023-02-18T17:28:17;8.60;;;6.40;;
25535;SDS011;13431;51.352;6.412;2023-02-18T17:30:46;8.63;;;6.88;;
25535;SDS011;13431;51.352;6.412;2023-02-18T17:33:24;8.18;;;6.25;;
25535;SDS011;13431;51.352;6.412;2023-02-18T17:35:52;7.15;;;6.13;;
25535;SDS011;13431;51.352;6.412;2023-02-18T17:38:19;8.02;;;6.57;;